createdAt,value
2023-03-22T00:00:34.727Z,82.62
2023-03-22T00:01:34.713Z,82.68
2023-03-22T00:02:34.755Z,82.77
2023-03-22T00:03:34.717Z,82.68
2023-03-22T00:04:34.706Z,82.67
2023-03-22T00:05:34.649Z,82.59
2023-03-22T00:06:34.648Z,82.42
2023-03-22T00:07:34.644Z,82.44
2023-03-22T00:08:34.608Z,82.45
2023-03-22T00:09:34.609Z,82.36
2023-03-22T00:10:34.646Z,82.40
2023-03-22T00:11:34.608Z,82.49
2023-03-22T00:12:34.565Z,82.51
2023-03-22T00:13:35.711Z,82.46
2023-03-22T00:14:34.553Z,82.50
2023-03-22T00:15:34.519Z,82.61
2023-03-22T00:16:34.617Z,82.69
2023-03-22T00:17:34.498Z,82.69
2023-03-22T00:18:34.492Z,82.75
2023-03-22T00:19:34.463Z,83.10
2023-03-22T00:20:34.470Z,83.00
2023-03-22T00:21:34.452Z,83.03
2023-03-22T00:22:34.499Z,83.47
2023-03-22T00:23:34.433Z,83.68
2023-03-22T00:24:34.417Z,83.67
2023-03-22T00:25:34.396Z,83.64
2023-03-22T00:26:34.386Z,83.82
2023-03-22T00:27:34.377Z,83.91
2023-03-22T00:28:34.389Z,83.99
2023-03-22T00:29:34.357Z,84.04
2023-03-22T00:30:34.341Z,84.13
2023-03-22T00:31:34.378Z,84.20
2023-03-22T00:32:34.319Z,84.11
2023-03-22T00:33:34.308Z,84.07
2023-03-22T00:34:34.316Z,84.19
2023-03-22T00:35:34.328Z,84.33
2023-03-22T00:36:34.264Z,84.58
2023-03-22T00:37:34.275Z,84.61
2023-03-22T00:38:41.984Z,84.61
2023-03-22T00:39:34.225Z,84.64
2023-03-22T00:40:34.239Z,84.75
2023-03-22T00:41:34.211Z,84.58
2023-03-22T00:42:34.181Z,84.51
2023-03-22T00:43:34.178Z,84.52
2023-03-22T00:44:34.153Z,84.44
2023-03-22T00:45:34.149Z,84.64
2023-03-22T00:46:34.231Z,84.67
2023-03-22T00:47:34.137Z,84.47
2023-03-22T00:48:34.122Z,84.15
2023-03-22T00:49:34.101Z,83.96
2023-03-22T00:50:34.072Z,83.73
2023-03-22T00:51:34.061Z,83.49
2023-03-22T00:52:34.081Z,83.32
2023-03-22T00:53:34.061Z,83.40
2023-03-22T00:54:34.040Z,83.29
2023-03-22T00:55:34.023Z,83.43
2023-03-22T00:56:34.071Z,83.42
2023-03-22T00:57:34.038Z,83.40
2023-03-22T00:58:34.017Z,83.35
2023-03-22T00:59:33.976Z,83.38
2023-03-22T01:00:33.963Z,83.42
2023-03-22T01:01:34.013Z,83.57
2023-03-22T01:02:33.928Z,83.83
2023-03-22T01:03:33.941Z,84.04
2023-03-22T01:04:33.938Z,84.26
2023-03-22T01:05:33.885Z,84.45
2023-03-22T01:06:33.879Z,84.54
2023-03-22T01:07:33.860Z,84.61
2023-03-22T01:08:33.839Z,84.81
2023-03-22T01:09:33.873Z,84.91
2023-03-22T01:10:33.860Z,84.94
2023-03-22T01:11:33.810Z,84.87
2023-03-22T01:12:33.853Z,84.97
2023-03-22T01:13:33.804Z,84.98
2023-03-22T01:14:33.775Z,85.38
2023-03-22T01:15:33.764Z,85.69
2023-03-22T01:16:33.856Z,85.66
2023-03-22T01:17:33.733Z,85.51
2023-03-22T01:18:33.731Z,85.32
2023-03-22T01:19:33.711Z,85.28
2023-03-22T01:20:33.689Z,85.13
2023-03-22T01:21:33.694Z,84.97
2023-03-22T01:22:33.690Z,84.95
2023-03-22T01:23:33.656Z,84.82
2023-03-22T01:24:33.646Z,84.70
2023-03-22T01:25:33.613Z,84.65
2023-03-22T01:26:33.620Z,84.37
2023-03-22T01:27:33.597Z,84.27
2023-03-22T01:28:33.633Z,84.30
2023-03-22T01:29:33.591Z,84.26
2023-03-22T01:30:33.633Z,84.26
2023-03-22T01:31:33.560Z,84.17
2023-03-22T01:32:33.528Z,84.24
2023-03-22T01:33:33.534Z,84.29
2023-03-22T01:34:33.564Z,84.33
2023-03-22T01:35:33.554Z,84.29
2023-03-22T01:36:33.480Z,84.25
2023-03-22T01:37:33.469Z,84.23
2023-03-22T01:38:33.456Z,84.12
2023-03-22T01:39:33.440Z,84.07
2023-03-22T01:40:33.505Z,83.97
2023-03-22T01:41:33.421Z,83.94
2023-03-22T01:42:33.413Z,83.87
2023-03-22T01:43:33.397Z,83.67
2023-03-22T01:44:33.398Z,83.68
2023-03-22T01:45:33.364Z,83.65
2023-03-22T01:46:33.494Z,83.69
2023-03-22T01:47:33.349Z,83.66
2023-03-22T01:48:33.322Z,83.53
2023-03-22T01:49:33.329Z,83.54
2023-03-22T01:50:33.304Z,83.61
2023-03-22T01:51:33.310Z,83.46
2023-03-22T01:52:33.327Z,83.76
2023-03-22T01:53:33.270Z,84.37
2023-03-22T01:54:33.277Z,84.78
2023-03-22T01:55:33.257Z,84.74
2023-03-22T01:56:33.228Z,84.67
2023-03-22T01:57:33.234Z,84.63
2023-03-22T01:58:33.256Z,84.54
2023-03-22T01:59:33.187Z,84.68
2023-03-22T02:00:33.207Z,84.76
2023-03-22T02:01:33.214Z,85.24
2023-03-22T02:02:33.227Z,85.33
2023-03-22T02:03:33.172Z,85.35
2023-03-22T02:04:33.153Z,85.39
2023-03-22T02:05:33.127Z,85.25
2023-03-22T02:06:33.123Z,85.47
2023-03-22T02:07:33.088Z,85.58
2023-03-22T02:08:33.062Z,85.98
2023-03-22T02:09:33.070Z,86.26
2023-03-22T02:10:33.077Z,86.27
2023-03-22T02:11:33.047Z,86.29
2023-03-22T02:12:33.046Z,86.15
2023-03-22T02:13:33.014Z,85.95
2023-03-22T02:14:33.008Z,85.84
2023-03-22T02:15:33.065Z,86.06
2023-03-22T02:16:33.011Z,86.16
2023-03-22T02:17:32.982Z,86.38
2023-03-22T02:18:32.969Z,86.48
2023-03-22T02:19:32.933Z,86.35
2023-03-22T02:20:32.929Z,86.34
2023-03-22T02:21:32.913Z,86.26
2023-03-22T02:22:32.925Z,86.08
2023-03-22T02:23:32.889Z,85.96
2023-03-22T02:24:32.921Z,85.86
2023-03-22T02:25:32.874Z,85.88
2023-03-22T02:26:32.877Z,85.63
2023-03-22T02:27:32.847Z,85.81
2023-03-22T02:28:32.907Z,85.78
2023-03-22T02:29:33.024Z,85.86
2023-03-22T02:30:32.824Z,86.32
2023-03-22T02:31:32.863Z,87.28
2023-03-22T02:32:32.776Z,87.60
2023-03-22T02:33:32.757Z,87.55
2023-03-22T02:34:32.773Z,87.99
2023-03-22T02:35:32.833Z,88.69
2023-03-22T02:36:32.728Z,88.91
2023-03-22T02:37:32.719Z,88.85
2023-03-22T02:38:32.707Z,88.68
2023-03-22T02:39:32.694Z,88.93
2023-03-22T02:40:32.702Z,89.11
2023-03-22T02:41:32.665Z,89.05
2023-03-22T02:42:32.650Z,89.12
2023-03-22T02:43:32.640Z,88.94
2023-03-22T02:44:32.620Z,88.70
2023-03-22T02:45:32.605Z,88.68
2023-03-22T02:46:32.647Z,88.74
2023-03-22T02:47:32.569Z,88.69
2023-03-22T02:48:32.566Z,88.92
2023-03-22T02:49:32.545Z,89.03
2023-03-22T02:50:32.538Z,89.03
2023-03-22T02:51:32.547Z,88.77
2023-03-22T02:52:32.540Z,88.51
2023-03-22T02:53:32.519Z,88.48
2023-03-22T02:54:32.472Z,88.56
2023-03-22T02:55:32.457Z,88.49
2023-03-22T02:56:32.491Z,88.75
2023-03-22T02:57:32.440Z,89.35
2023-03-22T02:58:32.477Z,89.62
2023-03-22T02:59:32.414Z,89.64
2023-03-22T03:00:32.560Z,90.21
2023-03-22T03:01:32.397Z,90.74
2023-03-22T03:02:32.395Z,90.74
2023-03-22T03:03:32.374Z,90.55
2023-03-22T03:04:32.401Z,90.25
2023-03-22T03:05:32.329Z,89.96
2023-03-22T03:06:32.355Z,89.72
2023-03-22T03:07:32.332Z,89.54
2023-03-22T03:08:32.322Z,89.88
2023-03-22T03:09:32.290Z,90.28
2023-03-22T03:10:32.322Z,90.03
2023-03-22T03:11:32.491Z,90.13
2023-03-22T03:12:32.247Z,90.46
2023-03-22T03:13:32.269Z,90.70
2023-03-22T03:14:32.242Z,90.63
2023-03-22T03:15:32.209Z,90.62
2023-03-22T03:16:32.253Z,90.58
2023-03-22T03:17:32.201Z,90.59
2023-03-22T03:18:32.188Z,90.57
2023-03-22T03:19:32.191Z,90.59
2023-03-22T03:20:32.168Z,90.51
2023-03-22T03:21:32.147Z,90.34
2023-03-22T03:22:32.159Z,90.31
2023-03-22T03:23:32.103Z,90.23
2023-03-22T03:24:32.119Z,90.16
2023-03-22T03:25:32.078Z,90.12
2023-03-22T03:26:32.078Z,90.51
2023-03-22T03:27:32.054Z,90.97
2023-03-22T03:28:32.076Z,91.26
2023-03-22T03:29:32.051Z,91.21
2023-03-22T03:30:32.027Z,91.14
2023-03-22T03:31:32.055Z,91.12
2023-03-22T03:32:31.986Z,91.13
2023-03-22T03:33:31.977Z,90.94
2023-03-22T03:34:31.992Z,91.07
2023-03-22T03:35:31.982Z,90.77
2023-03-22T03:36:31.932Z,90.81
2023-03-22T03:37:31.918Z,90.98
2023-03-22T03:38:31.929Z,91.01
2023-03-22T03:39:31.923Z,91.22
2023-03-22T03:40:31.945Z,91.09
2023-03-22T03:41:52.919Z,91.01
2023-03-22T03:50:22.984Z,91.24
2023-03-22T03:50:28.438Z,92.50
2023-03-22T03:51:28.947Z,92.67
2023-03-22T03:52:28.370Z,92.91
2023-03-22T03:53:28.355Z,92.61
2023-03-22T03:54:28.352Z,92.25
2023-03-22T03:55:28.342Z,91.89
2023-03-22T03:56:28.339Z,91.59
2023-03-22T03:57:28.327Z,91.43
2023-03-22T03:58:28.296Z,91.66
2023-03-22T03:59:28.298Z,91.78
2023-03-22T04:00:28.275Z,91.70
2023-03-22T04:01:28.286Z,91.53
2023-03-22T04:02:28.287Z,91.33
2023-03-22T04:03:28.256Z,91.93
2023-03-22T04:04:28.339Z,92.04
2023-03-22T04:05:28.210Z,92.39
2023-03-22T04:06:28.369Z,92.77
2023-03-22T04:07:28.216Z,93.25
2023-03-22T04:08:28.418Z,93.50
2023-03-22T04:09:28.154Z,93.30
2023-03-22T04:10:28.150Z,93.26
2023-03-22T04:11:28.153Z,93.10
2023-03-22T04:12:28.119Z,93.32
2023-03-22T04:13:28.126Z,93.31
2023-03-22T04:14:28.092Z,92.94
2023-03-22T04:15:28.082Z,93.05
2023-03-22T04:16:28.104Z,93.26
2023-03-22T04:17:28.057Z,93.38
2023-03-22T04:18:28.036Z,93.69
2023-03-22T04:19:28.062Z,93.69
2023-03-22T04:20:28.018Z,93.55
2023-03-22T04:21:28.013Z,93.49
2023-03-22T04:22:28.002Z,93.98
2023-03-22T04:23:28.017Z,94.56
2023-03-22T04:24:27.990Z,94.90
2023-03-22T04:25:27.990Z,94.81
2023-03-22T04:26:27.955Z,94.66
2023-03-22T04:27:27.921Z,94.79
2023-03-22T04:28:27.916Z,94.92
2023-03-22T04:29:27.898Z,95.20
2023-03-22T04:30:27.898Z,94.96
2023-03-22T04:31:27.966Z,94.65
2023-03-22T04:32:27.853Z,94.49
2023-03-22T04:33:27.859Z,94.35
2023-03-22T04:34:27.837Z,94.49
2023-03-22T04:35:27.842Z,94.57
2023-03-22T04:36:27.814Z,94.54
2023-03-22T04:37:27.814Z,94.42
2023-03-22T04:38:27.778Z,94.29
2023-03-22T04:39:27.774Z,94.63
2023-03-22T04:40:27.774Z,94.89
2023-03-22T04:41:29.455Z,94.63
2023-03-22T04:42:27.732Z,94.68
2023-03-22T04:43:27.752Z,94.68
2023-03-22T04:44:27.709Z,94.36
2023-03-22T04:45:27.690Z,94.19
2023-03-22T04:46:27.761Z,94.67
2023-03-22T04:47:27.660Z,94.48
2023-03-22T04:48:27.657Z,94.92
2023-03-22T04:49:27.666Z,94.70
2023-03-22T04:50:27.625Z,95.01
2023-03-22T04:51:27.634Z,95.22
2023-03-22T04:52:27.607Z,95.33
2023-03-22T04:53:27.750Z,95.55
2023-03-22T04:54:27.591Z,96.04
2023-03-22T04:55:27.660Z,95.96
2023-03-22T04:56:27.564Z,95.79
2023-03-22T04:57:27.554Z,95.82
2023-03-22T04:58:27.536Z,95.98
2023-03-22T04:59:27.507Z,96.07
2023-03-22T05:00:27.525Z,96.14
2023-03-22T05:01:27.548Z,96.11
2023-03-22T05:02:27.501Z,95.92
2023-03-22T05:03:27.460Z,95.59
2023-03-22T05:04:27.446Z,95.52
2023-03-22T05:05:27.453Z,95.77
2023-03-22T05:06:27.437Z,95.62
2023-03-22T05:07:27.446Z,95.69
2023-03-22T05:08:27.400Z,95.83
2023-03-22T05:09:27.386Z,95.71
2023-03-22T05:10:27.403Z,95.66
2023-03-22T05:11:27.372Z,95.60
2023-03-22T05:12:27.350Z,95.77
2023-03-22T05:13:27.382Z,96.07
2023-03-22T05:14:27.425Z,96.06
2023-03-22T05:15:27.307Z,96.19
2023-03-22T05:16:27.359Z,95.98
2023-03-22T05:17:27.290Z,96.30
2023-03-22T05:18:27.532Z,96.51
2023-03-22T05:19:27.304Z,96.67
2023-03-22T05:20:27.305Z,96.68
2023-03-22T05:21:27.256Z,96.54
2023-03-22T05:22:27.229Z,96.28
2023-03-22T05:23:27.254Z,96.32
2023-03-22T05:24:27.207Z,96.49
2023-03-22T05:25:27.239Z,96.43
2023-03-22T05:26:27.172Z,96.34
2023-03-22T05:27:27.167Z,96.21
2023-03-22T05:28:27.150Z,96.12
2023-03-22T05:29:27.143Z,96.00
2023-03-22T05:30:27.140Z,95.86
2023-03-22T05:31:27.198Z,95.75
2023-03-22T05:32:27.102Z,95.87
2023-03-22T05:33:27.100Z,96.15
2023-03-22T05:34:27.104Z,95.92
2023-03-22T05:35:27.109Z,95.74
2023-03-22T05:36:27.053Z,95.87
2023-03-22T05:37:27.071Z,95.79
2023-03-22T05:38:27.037Z,95.74
2023-03-22T05:39:27.009Z,95.69
2023-03-22T05:40:27.804Z,95.69
2023-03-22T05:41:26.985Z,95.70
2023-03-22T05:42:27.001Z,95.61
2023-03-22T05:43:26.994Z,95.61
2023-03-22T05:44:26.952Z,95.44
2023-03-22T05:48:31.467Z,94.57
2023-03-22T05:49:32.423Z,94.83
2023-03-22T05:50:32.413Z,94.65
2023-03-22T05:51:32.421Z,94.46
2023-03-22T05:52:32.394Z,94.19
2023-03-22T05:53:32.405Z,94.34
2023-03-22T05:54:32.482Z,94.18
2023-03-22T05:55:32.355Z,94.07
2023-03-22T05:56:32.344Z,93.61
2023-03-22T05:57:32.332Z,93.90
2023-03-22T05:58:32.358Z,93.53
2023-03-22T05:59:32.351Z,93.50
2023-03-22T06:00:32.311Z,93.25
2023-03-22T06:01:32.315Z,93.18
2023-03-22T06:02:32.264Z,93.38
2023-03-22T06:03:32.293Z,93.66
2023-03-22T06:04:32.243Z,93.50
2023-03-22T06:08:02.367Z,93.37
2023-03-22T06:09:10.458Z,93.65
2023-03-22T06:09:56.511Z,93.44
2023-03-22T06:10:56.483Z,93.09
2023-03-22T06:11:56.476Z,92.51
2023-03-22T06:12:56.471Z,92.29
2023-03-22T06:13:56.473Z,92.27
2023-03-22T06:14:56.435Z,91.85
2023-03-22T06:15:56.421Z,91.42
2023-03-22T06:16:56.437Z,91.10
2023-03-22T06:17:56.461Z,90.25
2023-03-22T06:18:56.372Z,90.49
2023-03-22T06:19:56.394Z,89.96
2023-03-22T06:20:56.360Z,89.37
2023-03-22T06:21:56.342Z,89.05
2023-03-22T06:22:56.344Z,88.41
2023-03-22T06:23:56.315Z,87.93
2023-03-22T06:24:56.300Z,87.73
2023-03-22T06:25:56.328Z,87.31
2023-03-22T06:26:56.267Z,86.87
2023-03-22T06:27:56.260Z,86.60
2023-03-22T06:28:56.251Z,86.79
2023-03-22T06:29:56.231Z,86.66
2023-03-22T06:30:56.325Z,86.47
2023-03-22T06:31:56.255Z,85.93
2023-03-22T06:32:56.196Z,85.78
2023-03-22T06:33:56.184Z,85.35
2023-03-22T06:34:56.195Z,84.72
2023-03-22T06:35:56.237Z,84.54
2023-03-22T06:36:56.136Z,84.25
2023-03-22T06:37:56.160Z,83.62
2023-03-22T06:38:56.121Z,82.54
2023-03-22T06:39:56.106Z,81.07
2023-03-22T06:40:56.089Z,80.38
2023-03-22T06:41:56.082Z,79.42
2023-03-22T06:42:56.053Z,78.80
2023-03-22T06:43:56.066Z,77.68
2023-03-22T06:44:56.040Z,76.57
2023-03-22T06:45:56.044Z,75.14
2023-03-22T06:46:56.002Z,74.25
2023-03-22T06:47:56.033Z,73.22
2023-03-22T06:48:55.991Z,72.62
2023-03-22T06:49:56.005Z,72.23
2023-03-22T06:50:55.970Z,71.19
2023-03-22T06:51:55.944Z,70.06
2023-03-22T06:52:55.938Z,69.62
2023-03-22T06:53:55.922Z,69.43
2023-03-22T06:54:55.894Z,69.30
2023-03-22T06:55:55.926Z,68.46
2023-03-22T06:56:55.879Z,67.91
2023-03-22T06:57:55.865Z,67.75
2023-03-22T06:58:55.848Z,68.09
2023-03-22T06:59:55.857Z,68.37
2023-03-22T07:00:55.927Z,69.13
2023-03-22T07:01:55.847Z,69.29
2023-03-22T07:02:55.809Z,68.82
2023-03-22T07:03:55.792Z,66.71
2023-03-22T07:06:23.069Z,66.23
2023-03-22T07:06:28.476Z,66.08
2023-03-22T07:07:28.502Z,66.51
2023-03-22T07:08:28.438Z,65.66
2023-03-22T07:09:29.050Z,63.90
2023-03-22T07:10:29.057Z,63.62
2023-03-22T07:11:28.411Z,63.69
2023-03-22T07:12:28.406Z,63.22
2023-03-22T07:13:28.418Z,62.46
2023-03-22T07:14:28.381Z,62.33
2023-03-22T07:15:28.358Z,61.68
2023-03-22T07:16:28.411Z,60.92
2023-03-22T07:17:28.346Z,60.37
2023-03-22T07:18:28.321Z,59.90
2023-03-22T07:19:28.358Z,59.49
2023-03-22T07:20:28.302Z,60.81
2023-03-22T07:21:28.284Z,60.89
2023-03-22T07:22:28.283Z,60.22
2023-03-22T07:23:28.264Z,59.44
2023-03-22T07:24:28.253Z,58.90
2023-03-22T07:25:28.268Z,58.62
2023-03-22T07:26:28.216Z,58.67
2023-03-22T07:27:28.224Z,58.00
2023-03-22T07:28:28.203Z,57.17
2023-03-22T07:29:28.188Z,58.24
2023-03-22T07:30:28.323Z,58.03
2023-03-22T07:31:28.195Z,58.34
2023-03-22T07:32:28.192Z,58.15
2023-03-22T07:33:28.138Z,58.55
2023-03-22T07:34:28.131Z,58.56
2023-03-22T07:35:28.133Z,57.79
2023-03-22T07:36:28.093Z,57.78
2023-03-22T07:37:28.118Z,58.53
2023-03-22T07:38:28.081Z,58.75
2023-03-22T07:39:28.077Z,58.59
2023-03-22T07:40:28.046Z,58.48
2023-03-22T07:41:28.029Z,58.04
2023-03-22T07:42:28.029Z,57.82
2023-03-22T07:43:28.055Z,57.27
2023-03-22T07:44:28.015Z,57.49
2023-03-22T07:45:28.046Z,56.81
2023-03-22T07:46:28.007Z,57.47
2023-03-22T07:47:40.277Z,57.32
2023-03-22T07:48:27.996Z,56.21
2023-03-22T07:49:27.980Z,56.06
2023-03-22T07:50:27.942Z,55.11
2023-03-22T07:51:27.909Z,55.87
2023-03-22T07:52:27.939Z,55.75
2023-03-22T07:53:27.905Z,55.49
2023-03-22T07:54:33.939Z,55.02
2023-03-22T07:55:27.904Z,54.89
2023-03-22T07:56:27.853Z,54.22
2023-03-22T07:57:27.877Z,53.73
2023-03-22T07:58:27.829Z,53.92
2023-03-22T07:59:27.843Z,54.39
2023-03-22T08:00:27.806Z,54.06
2023-03-22T08:01:27.843Z,53.86
2023-03-22T08:02:27.854Z,53.88
2023-03-22T08:03:27.799Z,53.40
2023-03-22T08:04:27.771Z,53.03
2023-03-22T08:05:27.750Z,53.23
2023-03-22T08:06:27.722Z,52.69
2023-03-22T08:07:27.760Z,53.14
2023-03-22T08:08:27.708Z,53.01
2023-03-22T08:09:27.715Z,53.03
2023-03-22T08:10:27.749Z,52.79
2023-03-22T08:11:27.673Z,52.51
2023-03-22T08:12:27.665Z,53.35
2023-03-22T08:13:27.703Z,52.94
2023-03-22T08:14:36.275Z,53.20
2023-03-22T08:15:27.637Z,52.57
2023-03-22T08:16:27.616Z,53.27
2023-03-22T08:17:27.604Z,53.15
2023-03-22T08:18:27.588Z,53.25
2023-03-22T08:19:27.616Z,53.30
2023-03-22T08:20:27.679Z,53.02
2023-03-22T08:21:27.538Z,52.69
2023-03-22T08:22:27.536Z,52.24
2023-03-22T08:23:40.384Z,51.74
2023-03-22T08:24:27.526Z,51.38
2023-03-22T08:25:27.518Z,50.84
2023-03-22T08:26:27.487Z,50.49
2023-03-22T08:27:27.482Z,50.85
2023-03-22T08:28:27.499Z,51.74
2023-03-22T08:29:27.445Z,52.75
2023-03-22T08:30:27.530Z,53.24
2023-03-22T08:31:27.544Z,52.75
2023-03-22T08:32:27.431Z,52.88
2023-03-22T08:33:27.435Z,51.05
2023-03-22T08:34:27.399Z,49.40
2023-03-22T08:35:27.402Z,50.83
2023-03-22T08:36:27.388Z,49.79
2023-03-22T08:37:27.386Z,50.36
2023-03-22T08:38:27.365Z,51.45
2023-03-22T08:39:27.329Z,51.72
2023-03-22T08:40:27.502Z,52.09
2023-03-22T08:41:27.312Z,51.95
2023-03-22T08:42:27.313Z,51.46
2023-03-22T08:43:27.333Z,50.71
2023-03-22T08:44:27.279Z,50.18
2023-03-22T08:45:27.256Z,48.66
2023-03-22T08:46:27.289Z,48.21
2023-03-22T08:47:27.236Z,48.75
2023-03-22T08:48:27.257Z,49.62
2023-03-22T08:49:27.242Z,49.75
2023-03-22T08:50:27.204Z,50.36
2023-03-22T08:51:27.216Z,51.27
2023-03-22T08:52:27.197Z,52.07
2023-03-22T08:53:27.170Z,51.97
2023-03-22T08:54:27.158Z,52.38
2023-03-22T08:55:27.172Z,51.68
2023-03-22T08:56:27.129Z,52.37
2023-03-22T08:57:27.111Z,51.45
2023-03-22T08:58:27.113Z,50.82
2023-03-22T08:59:27.137Z,50.30
2023-03-22T09:00:33.987Z,48.96
2023-03-22T09:01:27.272Z,48.98
2023-03-22T09:02:27.078Z,48.55
2023-03-22T09:03:27.072Z,48.25
2023-03-22T09:04:27.059Z,47.73
2023-03-22T09:05:27.049Z,47.86
2023-03-22T09:06:27.007Z,46.86
2023-03-22T09:07:27.020Z,47.21
2023-03-22T09:08:27.009Z,48.83
2023-03-22T09:09:26.989Z,50.06
2023-03-22T09:10:26.958Z,50.71
2023-03-22T09:11:26.947Z,50.34
2023-03-22T09:12:27.055Z,50.15
2023-03-22T09:13:26.990Z,48.44
2023-03-22T09:14:26.995Z,48.24
2023-03-22T09:15:26.903Z,47.82
2023-03-22T09:16:26.944Z,47.10
2023-03-22T09:17:47.957Z,48.04
2023-03-22T09:18:26.904Z,49.08
2023-03-22T09:19:26.900Z,49.14
2023-03-22T09:20:26.854Z,47.56
2023-03-22T09:21:26.839Z,46.66
2023-03-22T09:22:26.831Z,45.77
2023-03-22T09:23:26.831Z,45.92
2023-03-22T09:24:26.798Z,45.91
2023-03-22T09:25:26.831Z,44.14
2023-03-22T09:26:26.887Z,44.52
2023-03-22T09:27:26.770Z,43.24
2023-03-22T09:28:26.835Z,41.55
2023-03-22T09:29:26.757Z,41.08
2023-03-22T09:30:26.732Z,40.65
2023-03-22T09:31:26.834Z,41.19
2023-03-22T09:32:26.744Z,42.33
2023-03-22T09:33:26.773Z,42.09
2023-03-22T09:34:26.734Z,42.90
2023-03-22T09:35:26.753Z,42.90
2023-03-22T09:36:26.678Z,42.51
2023-03-22T09:37:26.703Z,43.70
2023-03-22T09:38:26.640Z,43.71
2023-03-22T09:39:26.630Z,44.19
2023-03-22T09:40:26.619Z,44.23
2023-03-22T09:41:26.607Z,43.32
2023-03-22T09:42:26.589Z,41.16
2023-03-22T09:43:26.607Z,39.43
2023-03-22T09:44:26.572Z,37.14
2023-03-22T09:45:26.558Z,37.52
2023-03-22T09:46:26.600Z,38.14
2023-03-22T09:47:30.768Z,38.22
2023-03-22T09:48:26.630Z,38.85
2023-03-22T09:49:26.586Z,38.60
2023-03-22T09:50:26.579Z,36.93
2023-03-22T09:51:26.516Z,35.06
2023-03-22T09:52:26.536Z,36.45
2023-03-22T09:53:26.496Z,35.90
2023-03-22T09:54:26.468Z,35.44
2023-03-22T09:55:26.506Z,35.03
2023-03-22T09:56:26.439Z,35.85
2023-03-22T09:57:26.439Z,36.02
2023-03-22T09:58:26.451Z,35.36
2023-03-22T09:59:26.406Z,36.99
2023-03-22T10:00:26.477Z,38.44
2023-03-22T10:01:26.646Z,37.96
2023-03-22T10:02:26.410Z,39.36
2023-03-22T10:03:26.379Z,41.35
2023-03-22T10:04:26.556Z,41.62
2023-03-22T10:05:27.109Z,40.93
2023-03-22T10:06:28.214Z,42.69
2023-03-22T10:07:26.352Z,43.25
2023-03-22T10:08:26.310Z,43.10
2023-03-22T10:09:26.295Z,41.01
2023-03-22T10:10:26.290Z,42.22
2023-03-22T10:11:26.273Z,43.38
2023-03-22T10:12:26.308Z,42.79
2023-03-22T10:13:26.295Z,43.45
2023-03-22T10:14:26.239Z,44.08
2023-03-22T10:15:26.235Z,43.42
2023-03-22T10:16:26.260Z,43.20
2023-03-22T10:17:26.203Z,43.31
2023-03-22T10:18:26.205Z,42.48
2023-03-22T10:19:26.266Z,41.50
2023-03-22T10:20:26.172Z,40.70
2023-03-22T10:21:26.159Z,40.25
2023-03-22T10:22:26.144Z,39.82
2023-03-22T10:23:26.163Z,39.19
2023-03-22T10:24:26.159Z,37.73
2023-03-22T10:25:26.155Z,37.85
2023-03-22T10:26:26.120Z,37.46
2023-03-22T10:27:26.113Z,37.68
2023-03-22T10:28:26.103Z,37.33
2023-03-22T10:29:26.084Z,36.17
2023-03-22T10:30:26.081Z,35.53
2023-03-22T10:31:26.124Z,36.03
2023-03-22T10:32:26.026Z,34.96
2023-03-22T10:33:26.038Z,34.09
2023-03-22T10:34:26.043Z,35.94
2023-03-22T10:35:26.089Z,36.89
2023-03-22T10:36:26.000Z,35.34
2023-03-22T10:37:26.061Z,36.45
2023-03-22T10:38:26.025Z,37.77
2023-03-22T10:39:25.975Z,37.66
2023-03-22T10:40:25.956Z,38.32
2023-03-22T10:41:25.936Z,37.56
2023-03-22T10:42:25.950Z,37.25
2023-03-22T10:43:25.952Z,35.66
2023-03-22T10:44:25.895Z,36.19
2023-03-22T10:45:25.892Z,35.46
2023-03-22T10:46:25.893Z,34.31
2023-03-22T10:47:25.869Z,33.70
2023-03-22T10:48:25.883Z,33.69
2023-03-22T10:49:25.910Z,35.17
2023-03-22T10:50:25.841Z,35.54
2023-03-22T10:51:25.842Z,36.45
2023-03-22T10:52:25.814Z,37.15
2023-03-22T10:53:25.806Z,37.89
2023-03-22T10:54:26.250Z,37.87
2023-03-22T10:55:25.817Z,37.26
2023-03-22T10:56:25.787Z,35.96
2023-03-22T10:57:25.786Z,34.84
2023-03-22T10:58:25.766Z,35.52
2023-03-22T10:59:25.745Z,37.10
2023-03-22T11:00:25.775Z,37.99
2023-03-22T11:01:25.995Z,38.83
2023-03-22T11:02:25.877Z,38.37
2023-03-22T11:03:25.734Z,39.50
2023-03-22T11:04:25.695Z,39.46
2023-03-22T11:05:25.694Z,39.75
2023-03-22T11:06:25.684Z,37.56
2023-03-22T11:07:25.692Z,34.76
2023-03-22T11:08:25.656Z,36.55
2023-03-22T11:09:25.636Z,35.83
2023-03-22T11:10:25.702Z,33.78
2023-03-22T11:11:25.631Z,34.06
2023-03-22T11:12:25.610Z,36.05
2023-03-22T11:13:25.637Z,36.11
2023-03-22T11:14:25.574Z,36.15
2023-03-22T11:15:25.572Z,35.36
2023-03-22T11:16:25.608Z,35.27
2023-03-22T11:17:25.571Z,35.69
2023-03-22T11:18:25.536Z,36.69
2023-03-22T11:19:25.578Z,34.43
2023-03-22T11:20:25.590Z,35.04
2023-03-22T11:21:25.512Z,36.00
2023-03-22T11:22:25.512Z,34.01
2023-03-22T11:23:25.508Z,35.15
2023-03-22T11:24:25.482Z,34.06
2023-03-22T11:25:25.485Z,32.75
2023-03-22T11:27:25.465Z,34.35
2023-03-22T11:28:25.431Z,33.15
2023-03-22T11:29:25.429Z,34.14
2023-03-22T11:30:25.447Z,34.50
2023-03-22T11:31:25.472Z,35.59
2023-03-22T11:32:25.472Z,32.97
2023-03-22T11:33:25.372Z,34.09
2023-03-22T11:34:25.364Z,33.19
2023-03-22T11:35:25.391Z,33.12
2023-03-22T11:36:25.369Z,32.80
2023-03-22T11:37:25.361Z,32.97
2023-03-22T11:38:25.311Z,32.22
2023-03-22T11:39:25.400Z,33.97
2023-03-22T11:40:25.320Z,31.67
2023-03-22T11:41:25.333Z,31.98
2023-03-22T11:42:25.282Z,32.39
2023-03-22T11:43:25.299Z,32.19
2023-03-22T11:44:25.271Z,34.73
2023-03-22T11:45:25.240Z,35.74
2023-03-22T11:46:25.278Z,35.05
2023-03-22T11:47:25.263Z,35.22
2023-03-22T11:48:25.315Z,35.32
2023-03-22T11:49:25.257Z,34.29
2023-03-22T11:50:25.211Z,32.71
2023-03-22T11:51:25.194Z,32.54
2023-03-22T11:52:25.177Z,33.20
2023-03-22T11:53:25.194Z,32.92
2023-03-22T11:54:25.150Z,33.65
2023-03-22T11:55:25.170Z,34.12
2023-03-22T11:56:25.152Z,32.40
2023-03-22T11:57:25.162Z,31.20
2023-03-22T11:58:25.123Z,29.91
2023-03-22T11:59:25.111Z,32.47
2023-03-22T12:00:25.097Z,30.63
2023-03-22T12:01:25.142Z,31.79
2023-03-22T12:02:25.244Z,31.64
2023-03-22T12:03:25.213Z,31.38
2023-03-22T12:04:25.121Z,32.24
2023-03-22T12:05:25.068Z,31.61
2023-03-22T12:06:25.101Z,31.51
2023-03-22T12:07:25.056Z,31.78
2023-03-22T12:08:25.065Z,31.64
2023-03-22T12:09:25.015Z,31.48
2023-03-22T12:10:25.059Z,31.80
2023-03-22T12:11:25.040Z,32.50
2023-03-22T12:12:25.039Z,33.37
2023-03-22T12:13:25.074Z,33.73
2023-03-22T12:14:25.070Z,35.54
2023-03-22T12:15:24.952Z,36.31
2023-03-22T12:16:25.264Z,36.91
2023-03-22T12:17:24.910Z,35.73
2023-03-22T12:18:24.976Z,35.28
2023-03-22T12:19:24.949Z,34.11
2023-03-22T12:20:24.881Z,35.86
2023-03-22T12:21:24.871Z,36.81
2023-03-22T12:22:24.854Z,38.72
2023-03-22T12:23:24.847Z,39.41
2023-03-22T12:24:24.830Z,39.43
2023-03-22T12:25:25.334Z,41.19
2023-03-22T12:26:24.817Z,40.29
2023-03-22T12:27:24.834Z,40.86
2023-03-22T12:28:24.799Z,42.18
2023-03-22T12:29:24.768Z,43.67
2023-03-22T12:30:24.771Z,44.18
2023-03-22T12:31:24.870Z,45.05
2023-03-22T12:32:24.786Z,43.04
2023-03-22T12:33:24.758Z,41.21
2023-03-22T12:34:24.711Z,41.71
2023-03-22T12:35:24.730Z,42.80
2023-03-22T12:36:24.757Z,44.35
2023-03-22T12:37:24.702Z,43.20
2023-03-22T12:38:24.665Z,43.52
2023-03-22T12:39:24.649Z,44.32
2023-03-22T12:40:24.657Z,43.45
2023-03-22T12:41:24.634Z,44.56
2023-03-22T12:42:24.632Z,43.75
2023-03-22T12:43:24.637Z,43.15
2023-03-22T12:44:24.623Z,44.23
2023-03-22T12:45:24.582Z,43.03
2023-03-22T12:46:24.601Z,41.66
2023-03-22T12:47:24.621Z,43.41
2023-03-22T12:48:24.675Z,42.28
2023-03-22T12:49:24.555Z,43.71
2023-03-22T12:50:24.521Z,41.01
2023-03-22T12:51:24.529Z,41.11
2023-03-22T12:52:26.375Z,43.83
2023-03-22T12:53:24.506Z,42.97
2023-03-22T12:54:24.483Z,43.13
2023-03-22T12:55:24.483Z,42.33
2023-03-22T12:56:24.450Z,39.59
2023-03-22T12:57:24.448Z,43.15
2023-03-22T12:58:24.441Z,43.14
2023-03-22T12:59:24.417Z,43.08
2023-03-22T13:00:24.416Z,42.45
2023-03-22T13:01:24.459Z,41.31
2023-03-22T13:02:24.404Z,41.91
2023-03-22T13:03:24.450Z,42.81
2023-03-22T13:04:24.349Z,43.04
2023-03-22T13:05:24.331Z,43.54
2023-03-22T13:06:24.303Z,44.59